createdAt,value
2017-04-27T10:01:33.993Z,20.69
2017-04-27T10:02:35.671Z,20.67
2017-04-27T10:03:37.569Z,20.77
2017-04-27T10:04:39.473Z,20.80
2017-04-27T10:05:41.268Z,20.66
2017-04-27T10:06:43.452Z,20.77
2017-04-27T10:07:45.091Z,20.75
2017-04-27T10:08:47.013Z,20.75
2017-04-27T10:09:48.872Z,20.70
2017-04-27T10:10:50.775Z,20.77
2017-04-27T10:11:52.582Z,20.78
2017-04-27T10:12:54.292Z,20.77
2017-04-27T10:13:56.145Z,20.75
2017-04-27T10:14:57.939Z,20.75
2017-04-27T10:15:59.794Z,20.75
2017-04-27T10:17:01.754Z,20.81
2017-04-27T10:18:03.679Z,20.75
2017-04-27T10:19:05.384Z,20.81
2017-04-27T10:20:07.121Z,20.75
2017-04-27T10:21:08.974Z,20.81
2017-04-27T10:22:10.705Z,20.70
2017-04-27T10:23:12.516Z,20.70
2017-04-27T10:24:14.274Z,20.90
2017-04-27T10:25:16.105Z,20.85
2017-04-27T10:26:18.037Z,20.80
2017-04-27T10:27:19.925Z,20.87
2017-04-27T10:28:21.762Z,20.84
2017-04-27T10:29:23.625Z,20.87
2017-04-27T10:30:25.559Z,20.90
2017-04-27T10:31:27.317Z,20.88
2017-04-27T10:32:29.144Z,20.87
2017-04-27T10:33:31.052Z,20.90
2017-04-27T10:34:32.939Z,20.90
2017-04-27T10:35:34.884Z,20.90
2017-04-27T10:36:36.715Z,21.02
2017-04-27T10:37:38.821Z,21.11
2017-04-27T10:38:40.684Z,21.21
2017-04-27T10:39:42.497Z,21.21
2017-04-27T10:40:44.256Z,21.24
2017-04-27T10:41:46.213Z,21.32
2017-04-27T10:42:48.080Z,21.36
2017-04-27T10:43:49.912Z,21.32
2017-04-27T10:44:51.814Z,21.36
2017-04-27T10:45:53.590Z,21.35
2017-04-27T10:46:55.290Z,21.43
2017-04-27T10:47:57.111Z,21.32
2017-04-27T10:48:58.948Z,21.43
2017-04-27T10:50:00.883Z,21.43
2017-04-27T10:51:02.795Z,21.37
2017-04-27T10:52:04.661Z,21.46
2017-04-27T10:53:06.560Z,21.45
2017-04-27T10:54:08.739Z,21.37
2017-04-27T10:55:10.554Z,21.46
2017-04-27T10:56:12.380Z,21.43
2017-04-27T10:57:14.195Z,21.39
2017-04-27T10:58:16.014Z,21.42
2017-04-27T10:59:17.923Z,21.33
2017-04-27T11:00:19.739Z,21.32
2017-04-27T11:01:21.570Z,21.35
2017-04-27T11:02:23.379Z,21.40
2017-04-27T11:03:25.222Z,21.40
2017-04-27T11:04:27.070Z,21.35
2017-04-27T11:05:28.925Z,21.43
2017-04-27T11:06:30.811Z,21.50
2017-04-27T11:07:32.742Z,21.37
2017-04-27T11:08:34.421Z,21.48
2017-04-27T11:09:36.294Z,21.45
2017-04-27T11:10:38.164Z,21.45
2017-04-27T11:11:40.026Z,21.54
2017-04-27T11:12:41.860Z,21.50
2017-04-27T11:13:44.014Z,21.48
2017-04-27T11:14:45.925Z,21.61
2017-04-27T11:15:47.862Z,21.69
2017-04-27T11:16:49.759Z,21.73
2017-04-27T11:17:51.713Z,21.83
2017-04-27T11:18:53.546Z,21.95
2017-04-27T11:19:55.394Z,21.96
2017-04-27T11:20:57.268Z,22.07
2017-04-27T11:21:59.000Z,22.06
2017-04-27T11:23:00.906Z,22.07
2017-04-27T11:24:02.786Z,21.95
2017-04-27T11:25:04.676Z,22.00
2017-04-27T11:26:06.475Z,21.93
2017-04-27T11:27:08.402Z,21.95
2017-04-27T11:28:10.309Z,21.96
2017-04-27T11:29:12.169Z,22.00
2017-04-27T11:30:13.973Z,21.76
2017-04-27T11:31:15.866Z,21.89
2017-04-27T11:32:17.780Z,21.83
2017-04-27T11:33:19.932Z,21.76
2017-04-27T11:34:23.009Z,21.79
2017-04-27T11:35:24.830Z,21.72
2017-04-27T11:36:26.696Z,21.75
2017-04-27T11:37:28.557Z,21.67
2017-04-27T11:39:03.903Z,21.66
2017-04-27T11:39:32.168Z,21.70
2017-04-27T11:40:34.103Z,21.62
2017-04-27T11:41:35.931Z,21.54
2017-04-27T11:42:37.647Z,21.60
2017-04-27T11:43:39.510Z,21.62
2017-04-27T11:44:41.379Z,21.61
2017-04-27T11:45:43.141Z,21.69
2017-04-27T11:46:44.975Z,21.70
2017-04-27T11:47:46.713Z,21.64
2017-04-27T11:48:48.831Z,21.67
2017-04-27T11:49:50.662Z,21.57
2017-04-27T11:50:52.610Z,21.54
2017-04-27T11:51:54.410Z,21.57
2017-04-27T11:52:56.235Z,21.66
2017-04-27T11:53:57.905Z,21.70
2017-04-27T11:54:59.701Z,21.62
2017-04-27T11:56:01.446Z,21.64
2017-04-27T11:57:03.267Z,21.55
2017-04-27T11:58:05.088Z,21.61
2017-04-27T11:59:06.925Z,21.61
2017-04-27T12:00:08.841Z,21.55
2017-04-27T12:01:10.951Z,21.50
2017-04-27T12:02:12.651Z,21.46
2017-04-27T12:03:14.549Z,21.39
2017-04-27T12:04:16.463Z,21.46
2017-04-27T12:05:18.235Z,21.40
2017-04-27T12:06:19.933Z,21.33
2017-04-27T12:07:21.827Z,21.35
2017-04-27T12:08:23.698Z,21.30
2017-04-27T12:09:25.564Z,21.21
2017-04-27T12:10:27.375Z,21.36
2017-04-27T12:11:29.208Z,21.21
2017-04-27T12:12:31.167Z,21.15
2017-04-27T12:13:32.998Z,21.18
2017-04-27T12:14:34.740Z,21.17
2017-04-27T12:15:36.703Z,21.12
2017-04-27T12:16:38.483Z,21.15
2017-04-27T12:17:40.243Z,21.15
2017-04-27T12:18:42.098Z,21.18
2017-04-27T12:19:43.764Z,21.20
2017-04-27T12:20:45.590Z,21.14
2017-04-27T12:21:47.401Z,21.22
2017-04-27T12:22:49.254Z,21.21
2017-04-27T12:23:51.094Z,21.32
2017-04-27T12:24:52.960Z,21.37
2017-04-27T12:25:54.821Z,21.45
2017-04-27T12:26:56.559Z,21.46
2017-04-27T12:27:58.383Z,21.39
2017-04-27T12:29:00.334Z,21.43
2017-04-27T12:30:02.276Z,21.51
2017-04-27T12:31:04.160Z,21.42
2017-04-27T12:32:05.878Z,21.43
2017-04-27T12:33:07.750Z,21.51
2017-04-27T12:34:09.530Z,21.50
2017-04-27T12:35:11.409Z,21.51
2017-04-27T12:36:13.253Z,21.55
2017-04-27T12:37:15.192Z,21.52
2017-04-27T12:38:17.087Z,21.51
2017-04-27T12:39:18.941Z,21.55
2017-04-27T12:40:20.867Z,21.64
2017-04-27T12:41:22.887Z,21.52
2017-04-27T12:42:24.708Z,21.67
2017-04-27T12:43:26.601Z,21.58
2017-04-27T12:44:28.494Z,21.67
2017-04-27T12:45:30.324Z,21.62
2017-04-27T12:46:32.138Z,21.58
2017-04-27T12:47:34.005Z,21.64
2017-04-27T12:48:35.866Z,21.70
2017-04-27T12:49:37.707Z,21.70
2017-04-27T12:50:39.535Z,21.64
2017-04-27T12:51:41.366Z,21.69
2017-04-27T12:52:43.468Z,21.70
2017-04-27T12:53:45.287Z,21.67
2017-04-27T12:54:47.204Z,21.69
2017-04-27T12:55:49.015Z,21.92
2017-04-27T12:56:50.975Z,22.11
2017-04-27T12:57:52.792Z,22.15
2017-04-27T12:58:54.658Z,22.18
2017-04-27T12:59:56.464Z,22.22
2017-04-27T13:00:58.266Z,22.28
2017-04-27T13:02:00.063Z,22.29
2017-04-27T13:03:01.918Z,22.29
2017-04-27T13:04:03.893Z,22.33
2017-04-27T13:05:05.680Z,22.26
2017-04-27T13:06:07.579Z,22.32
2017-04-27T13:07:09.483Z,22.30
2017-04-27T13:08:11.257Z,22.26
2017-04-27T13:09:13.087Z,22.26
2017-04-27T13:10:15.253Z,22.08
2017-04-27T13:11:17.200Z,21.99
2017-04-27T13:12:19.128Z,21.76
2017-04-27T13:13:21.006Z,21.58
2017-04-27T13:14:22.881Z,21.58
2017-04-27T13:15:24.816Z,21.52
2017-04-27T13:16:26.647Z,21.51
2017-04-27T13:17:28.425Z,21.51
2017-04-27T13:18:30.353Z,21.46
2017-04-27T13:19:32.500Z,21.50
2017-04-27T13:20:34.375Z,21.55
2017-04-27T13:21:36.310Z,21.46
2017-04-27T13:22:38.165Z,21.42
2017-04-27T13:23:40.020Z,21.36
2017-04-27T13:24:41.867Z,21.32
2017-04-27T13:25:43.722Z,21.36
2017-04-27T13:26:45.840Z,21.40
2017-04-27T13:27:47.664Z,21.37
2017-04-27T13:28:49.518Z,21.37
2017-04-27T13:29:51.349Z,21.45
2017-04-27T13:30:53.133Z,21.39
2017-04-27T13:31:55.003Z,21.37
2017-04-27T13:32:56.830Z,21.37
2017-04-27T13:33:58.719Z,21.42
2017-04-27T13:35:00.618Z,21.39
2017-04-27T13:36:02.486Z,21.42
2017-04-27T13:37:04.442Z,21.39
2017-04-27T13:38:06.326Z,21.39
2017-04-27T13:39:08.145Z,21.35
2017-04-27T13:40:09.990Z,21.33
2017-04-27T13:41:11.841Z,21.30
2017-04-27T13:42:13.710Z,21.39
2017-04-27T13:43:15.637Z,21.33
2017-04-27T13:44:17.750Z,21.35
2017-04-27T13:45:19.435Z,21.39
2017-04-27T13:46:21.449Z,21.45
2017-04-27T13:47:23.178Z,21.39
2017-04-27T13:48:25.019Z,21.36
2017-04-27T13:49:26.803Z,21.37
2017-04-27T13:50:28.707Z,21.36
2017-04-27T13:51:30.595Z,21.36
2017-04-27T13:52:32.324Z,21.33
2017-04-27T13:53:34.245Z,21.37
2017-04-27T13:54:35.991Z,21.45
2017-04-27T13:55:37.755Z,21.36
2017-04-27T13:56:39.470Z,21.55
2017-04-27T13:57:41.619Z,21.54
2017-04-27T13:58:43.479Z,21.48
2017-04-27T13:59:45.185Z,21.57
2017-04-27T14:00:46.908Z,21.52
2017-04-27T14:01:48.965Z,21.50
2017-04-27T14:02:50.923Z,21.55
2017-04-27T14:03:52.763Z,21.43
2017-04-27T14:04:54.691Z,21.54
2017-04-27T14:05:56.541Z,21.51
2017-04-27T14:06:58.515Z,21.54
2017-04-27T14:08:00.390Z,21.54
2017-04-27T14:09:02.342Z,21.52
2017-04-27T14:10:04.245Z,21.48
2017-04-27T14:11:06.185Z,21.54
2017-04-27T14:12:08.106Z,21.50
2017-04-27T14:13:10.007Z,21.50
2017-04-27T14:14:13.091Z,21.46
2017-04-27T14:15:17.261Z,21.51
2017-04-27T14:16:19.158Z,21.45
2017-04-27T14:17:21.019Z,21.42
2017-04-27T14:18:22.891Z,21.48
2017-04-27T14:19:24.743Z,21.50
2017-04-27T14:20:26.590Z,21.51
2017-04-27T14:21:28.452Z,21.46
2017-04-27T14:22:30.413Z,21.50
2017-04-27T14:23:32.286Z,21.43
2017-04-27T14:24:34.222Z,21.52
2017-04-27T14:25:36.111Z,21.48
2017-04-27T14:26:38.396Z,21.46
2017-04-27T14:27:40.316Z,21.51
2017-04-27T14:28:42.228Z,21.50
2017-04-27T14:29:44.196Z,21.55
2017-04-27T14:30:46.068Z,21.51
2017-04-27T14:31:47.985Z,21.52
2017-04-27T14:32:49.820Z,21.42
2017-04-27T14:33:51.808Z,21.52
2017-04-27T14:34:54.091Z,21.50
2017-04-27T14:35:55.936Z,21.45
2017-04-27T14:36:58.373Z,21.40
2017-04-27T14:38:00.101Z,21.50
2017-04-27T14:39:01.799Z,21.48
2017-04-27T14:40:03.667Z,21.46
2017-04-27T14:41:05.666Z,21.46
2017-04-27T14:42:07.576Z,21.54
2017-04-27T14:43:09.496Z,21.50
2017-04-27T14:44:11.445Z,21.55
2017-04-27T14:45:13.296Z,21.55
2017-04-27T14:46:15.009Z,21.48
2017-04-27T14:47:16.953Z,21.54
2017-04-27T14:48:18.717Z,21.54
2017-04-27T14:49:20.415Z,21.46
2017-04-27T14:50:22.180Z,21.50
2017-04-27T14:51:24.087Z,21.50
2017-04-27T14:52:26.000Z,21.42
2017-04-27T14:53:27.764Z,21.35
2017-04-27T14:54:29.624Z,21.43
2017-04-27T14:55:31.544Z,21.39
2017-04-27T14:56:33.343Z,21.39
2017-04-27T14:57:35.175Z,21.40
2017-04-27T14:58:36.955Z,21.36
2017-04-27T14:59:38.770Z,21.30
2017-04-27T15:01:22.842Z,21.35
2017-04-27T15:03:40.993Z,21.39
2017-04-27T15:04:42.813Z,21.36
2017-04-27T15:05:44.733Z,21.51
2017-04-27T15:06:46.589Z,21.51
2017-04-27T15:07:48.505Z,21.48
2017-04-27T15:08:50.368Z,21.52
2017-04-27T15:09:52.136Z,21.61
2017-04-27T15:10:53.901Z,21.67
2017-04-27T15:11:55.600Z,21.58
2017-04-27T15:12:57.659Z,21.69
2017-04-27T15:13:59.525Z,21.62
2017-04-27T15:15:01.496Z,21.66
2017-04-27T15:16:03.176Z,21.67
2017-04-27T15:17:05.109Z,21.69
2017-04-27T15:18:07.024Z,21.73
2017-04-27T15:19:08.986Z,21.64
2017-04-27T15:20:10.896Z,21.62
2017-04-27T15:21:12.700Z,21.66
2017-04-27T15:22:14.744Z,21.70
